Sevenisland Tomo — JM5778 — position and weather

sailwx.info

Track history (hours):
 
Tides and Currents Weather Stations Pressure Air Temp Water Temp Dewpoint Dewpoint Depression Visibility Wind Speed Wind Dir Waves Ship Positions

Sevenisland Tomo

Last reported at 2018-Feb-23 08:22 UTC. Time now 2018-Feb-23 08:42 UTC.
Position N 35°39' E 139°46'.

Length 27 m; draft 5.4 m.

MMSI: 431009153.

Date/timePositionNaut miles runAvg speedWind from/ knotsBaromVisibWave heightAir tempDewpointWater temp
2018-Feb-23 08:22N 35°39' E 139°46'1234.6
2018-Feb-23 08:01N 35°27' E 139°48'2040.8
2018-Feb-23 07:30N 35°07' E 139°47'816.2
2018-Feb-23 07:00N 34°59' E 139°51'3310.1
2018-Feb-23 03:43N 34°57' E 139°10'943.4
2018-Feb-23 03:30N 35°05' E 139°05'0 0.4
2018-Feb-23 02:59N 35°06' E 139°05'1913.1
2018-Feb-23 01:31N 34°48' E 139°13'141.4
2018-Feb-23 01:30N 34°48' E 139°12'6 8.5
2018-Feb-23 00:50N 34°47' E 139°05'1111.6
2018-Feb-22 23:54N 34°50' E 139°18'1320.1
2018-Feb-22 23:15N 34°59' E 139°06'625.1
2018-Feb-22 23:01N 35°05' E 139°05'0 0.0
2018-Feb-22 22:23N 35°05' E 139°05'0 0.0
2018-Feb-22 08:22N 35°06' E 139°05'1834.8
2018-Feb-22 07:51N 34°48' E 139°05'2 5.3
2018-Feb-22 07:30N 34°46' E 139°06'8 9.7
2018-Feb-22 06:41N 34°51' E 139°14'940.2
2018-Feb-22 06:27N 34°59' E 139°09'8 8.4
2018-Feb-22 05:33N 35°06' E 139°05'138.3
2018-Feb-22 05:31N 35°05' E 139°06'1324.1
2018-Feb-22 04:59N 34°53' E 139°13'9 4.2
2018-Feb-22 02:49N 34°45' E 139°19'1112.2
2018-Feb-22 01:57N 34°46' E 139°06'1216.8
2018-Feb-22 01:14N 34°46' E 139°20'1638.9
2018-Feb-22 00:49N 34°56' E 139°36'1330.1
2018-Feb-22 00:24N 34°59' E 139°51'410.9
2018-Feb-22 00:00N 35°02' E 139°47'2039.7
2018-Feb-21 23:31N 35°22' E 139°46'1734.9
2018-Feb-21 23:00N 35°39' E 139°46'1 1.5
2018-Feb-21 22:30N 35°38' E 139°46'1 1.0
2018-Feb-21 22:00N 35°38' E 139°45'0 0.0
2018-Feb-21 21:30N 35°38' E 139°45'1 0.1
2018-Feb-21 08:43N 35°39' E 139°46'0 0.1
2018-Feb-21 08:30N 35°39' E 139°46'1531.0
2018-Feb-21 08:01N 35°24' E 139°47'1122.4
2018-Feb-21 07:30N 35°13' E 139°43'1428.5
2018-Feb-21 07:00N 34°60' E 139°37'1715.3
2018-Feb-21 05:56N 34°48' E 139°23'2139.8
2018-Feb-21 05:23N 34°60' E 139°45'3 5.9
2018-Feb-21 04:52N 35°02' E 139°47'1440.1
2018-Feb-21 04:31N 35°17' E 139°46'2038.8
2018-Feb-21 04:00N 35°36' E 139°46'3 5.9
2018-Feb-21 03:29N 35°39' E 139°46'918.6
2018-Feb-21 03:00N 35°31' E 139°49'2039.9
2018-Feb-21 02:30N 35°11' E 139°47'2618.1
2018-Feb-21 01:02N 34°51' E 139°26'1239.5
2018-Feb-21 00:44N 34°59' E 139°36'1042.3
2018-Feb-21 00:31N 35°07' E 139°43'612.3
2018-Feb-21 00:01N 35°13' E 139°44'1836.7
2018-Feb-20 23:30N 35°31' E 139°50'917.1
2018-Feb-20 22:59N 35°39' E 139°46'0 0.7
2018-Feb-20 22:31N 35°39' E 139°46'1 1.3
2018-Feb-20 21:52N 35°38' E 139°45'0 0.0
2018-Feb-20 08:46N 35°38' E 139°45'1 4.0
2018-Feb-20 08:29N 35°39' E 139°46'1122.2
2018-Feb-20 08:01N 35°29' E 139°49'2141.5
2018-Feb-20 07:30N 35°08' E 139°48'32 9.2
2018-Feb-20 04:01N 34°49' E 139°16'140.0
2018-Feb-20 04:00N 34°50' E 139°16'1832.5
2018-Feb-20 03:26N 35°05' E 139°05'1 2.1
2018-Feb-20 03:00N 35°06' E 139°06'2317.9
2018-Feb-20 01:42N 34°45' E 139°19'840.9
2018-Feb-20 01:30N 34°47' E 139°09'3 3.7
2018-Feb-20 00:47N 34°47' E 139°06'8 9.0
2018-Feb-19 23:52N 34°50' E 139°15'1222.2
2018-Feb-19 23:19N 34°60' E 139°06'613.8
2018-Feb-19 22:53N 35°05' E 139°05'0 0.0
2018-Feb-19 22:26N 35°05' E 139°05'0 0.0
2018-Feb-19 09:38N 35°05' E 139°05'0 0.0
2018-Feb-19 08:48N 35°05' E 139°05'1 3.1
2018-Feb-19 08:25N 35°05' E 139°06'1639.2
2018-Feb-19 08:00N 34°49' E 139°07'2 4.3
2018-Feb-19 07:30N 34°47' E 139°07'1312.5
2018-Feb-19 06:30N 34°59' E 139°09'712.2
2018-Feb-19 05:53N 35°05' E 139°05'514.7
2018-Feb-19 05:31N 35°00' E 139°07'918.4
2018-Feb-19 05:00N 34°53' E 139°14'9 4.3
2018-Feb-19 02:52N 34°45' E 139°20'1213.5
2018-Feb-19 01:59N 34°47' E 139°06'1215.7
2018-Feb-19 01:14N 34°46' E 139°20'1539.1
2018-Feb-19 00:51N 34°55' E 139°34'1214.5
2018-Feb-19 00:01N 35°02' E 139°47'039.4
2018-Feb-19 00:00N 35°03' E 139°46'2040.7
2018-Feb-18 23:31N 35°23' E 139°46'1618.5
2018-Feb-18 22:38N 35°39' E 139°46'1 5.9
2018-Feb-18 22:30N 35°39' E 139°46'1 1.1
2018-Feb-18 22:00N 35°38' E 139°45'0 0.0
2018-Feb-18 21:30N 35°38' E 139°45'0 0.0
2018-Feb-18 09:21N 35°38' E 139°45'0 0.8
2018-Feb-18 08:59N 35°38' E 139°46'1 2.4
2018-Feb-18 08:30N 35°39' E 139°46'1733.8
2018-Feb-18 08:00N 35°22' E 139°46'918.7
2018-Feb-18 07:30N 35°13' E 139°43'1428.1
2018-Feb-18 07:00N 34°60' E 139°38'1724.1
2018-Feb-18 06:18N 34°47' E 139°23'1 3.1
2018-Feb-18 05:57N 34°49' E 139°23'2337.7
2018-Feb-18 05:21N 35°00' E 139°47'2 3.8
2018-Feb-18 04:53N 35°02' E 139°47'1642.2
2018-Feb-18 04:31N 35°18' E 139°45'2038.9
2018-Feb-18 04:00N 35°38' E 139°46'2 3.2
2018-Feb-18 03:28N 35°39' E 139°46'1021.9
2018-Feb-18 03:01N 35°30' E 139°49'2039.4
2018-Feb-18 02:30N 35°10' E 139°47'2923.7
2018-Feb-18 01:16N 34°47' E 139°23'1732.1
2018-Feb-18 00:45N 34°60' E 139°37'1039.7
2018-Feb-18 00:30N 35°07' E 139°44'611.7
2018-Feb-18 00:01N 35°13' E 139°43'1734.7
2018-Feb-17 23:31N 35°30' E 139°49'1018.8
2018-Feb-17 23:00N 35°39' E 139°46'0 0.6
2018-Feb-17 22:30N 35°39' E 139°46'1 2.0
2018-Feb-17 22:00N 35°38' E 139°45'1 0.1
2018-Feb-17 08:33N 35°39' E 139°46'0 0.4
2018-Feb-17 08:24N 35°39' E 139°46'1231.5
2018-Feb-17 08:01N 35°27' E 139°48'1938.8
2018-Feb-17 07:30N 35°08' E 139°47'1414.7
2018-Feb-17 06:35N 34°57' E 139°37'21 7.8
2018-Feb-17 03:50N 34°57' E 139°11'1027.9
2018-Feb-17 03:29N 35°05' E 139°05'1 1.3
2018-Feb-17 02:59N 35°05' E 139°05'1912.6
2018-Feb-17 01:31N 34°48' E 139°12'043.5
2018-Feb-17 01:30N 34°48' E 139°11'5 7.4
2018-Feb-17 00:50N 34°47' E 139°05'1439.9
2018-Feb-17 00:29N 34°48' E 139°23'610.2
2018-Feb-16 23:54N 34°51' E 139°17'1219.0
2018-Feb-16 23:17N 34°59' E 139°06'617.5
2018-Feb-16 22:56N 35°05' E 139°05'0 0.0
2018-Feb-16 22:30N 35°05' E 139°05'0 0.0
2018-Feb-16 08:36N 35°05' E 139°05'1 6.5
2018-Feb-16 08:30N 35°05' E 139°05'1921.1
2018-Feb-16 07:37N 34°47' E 139°07'642.2
2018-Feb-16 07:28N 34°48' E 139°14'4 5.5
2018-Feb-16 06:46N 34°50' E 139°18'1239.1
2018-Feb-16 06:28N 34°59' E 139°09'7 6.9
2018-Feb-16 05:31N 35°05' E 139°06'144.6
2018-Feb-16 05:30N 35°05' E 139°06'17 6.2
2018-Feb-16 02:40N 34°48' E 139°11'4 6.7
2018-Feb-16 02:00N 34°47' E 139°05'2522.1
2018-Feb-16 00:52N 34°52' E 139°35'1336.3
2018-Feb-16 00:30N 35°00' E 139°48'0 0.9
2018-Feb-16 00:00N 35°01' E 139°48'2142.8
2018-Feb-15 23:31N 35°22' E 139°46'1734.2
2018-Feb-15 23:00N 35°39' E 139°46'1 2.3
2018-Feb-15 22:31N 35°38' E 139°46'0 0.7
2018-Feb-15 21:59N 35°38' E 139°45'0 0.0
2018-Feb-15 21:30N 35°38' E 139°45'1 0.1
2018-Feb-15 08:22N 35°39' E 139°46'1335.6
2018-Feb-15 08:01N 35°26' E 139°47'2141.1
2018-Feb-15 07:30N 35°06' E 139°47'713.2
2018-Feb-15 07:00N 34°60' E 139°51'1511.0
2018-Feb-15 05:40N 34°52' E 139°35'933.3
2018-Feb-15 05:23N 34°60' E 139°42'5 8.7
2018-Feb-15 04:52N 35°01' E 139°47'1540.5
2018-Feb-15 04:31N 35°16' E 139°47'1938.2
2018-Feb-15 04:00N 35°35' E 139°47'4 8.0
2018-Feb-15 03:30N 35°39' E 139°46'918.0
2018-Feb-15 03:01N 35°31' E 139°49'2040.0
2018-Feb-15 02:30N 35°11' E 139°47'2812.9
2018-Feb-15 00:21N 34°51' E 139°23'1439.2
2018-Feb-15 00:00N 35°05' E 139°26'1313.4
2018-Feb-14 23:00N 35°18' E 139°30'1632.3
2018-Feb-14 22:30N 35°05' E 139°41'1733.7
2018-Feb-14 22:00N 35°21' E 139°45'1734.6
2018-Feb-14 21:31N 35°38' E 139°46'0 0.6
2018-Feb-14 20:57N 35°38' E 139°45'1 0.0
2018-Feb-13 08:26N 35°39' E 139°46'  
Track history (hours):
 
Tides and Currents Weather Stations Pressure Air Temp Water Temp Dewpoint Dewpoint Depression Visibility Wind Speed Wind Dir Waves Ship Positions

Sevenisland Tomo

Last reported at 2018-Feb-23 08:22 UTC. Time now 2018-Feb-23 08:42 UTC.
Position N 35°39' E 139°46'.

Length 27 m; draft 5.4 m.

MMSI: 431009153.

Date/timePositionNaut miles runAvg speedWind from/ knotsBaromVisibWave heightAir tempDewpointWater temp
2018-Feb-23 08:22N 35°39' E 139°46'1234.6
2018-Feb-23 08:01N 35°27' E 139°48'2040.8
2018-Feb-23 07:30N 35°07' E 139°47'816.2
2018-Feb-23 07:00N 34°59' E 139°51'3310.1
2018-Feb-23 03:43N 34°57' E 139°10'943.4
2018-Feb-23 03:30N 35°05' E 139°05'0 0.4
2018-Feb-23 02:59N 35°06' E 139°05'1913.1
2018-Feb-23 01:31N 34°48' E 139°13'141.4
2018-Feb-23 01:30N 34°48' E 139°12'6 8.5
2018-Feb-23 00:50N 34°47' E 139°05'1111.6
2018-Feb-22 23:54N 34°50' E 139°18'1320.1
2018-Feb-22 23:15N 34°59' E 139°06'625.1
2018-Feb-22 23:01N 35°05' E 139°05'0 0.0
2018-Feb-22 22:23N 35°05' E 139°05'0 0.0
2018-Feb-22 08:22N 35°06' E 139°05'1834.8
2018-Feb-22 07:51N 34°48' E 139°05'2 5.3
2018-Feb-22 07:30N 34°46' E 139°06'8 9.7
2018-Feb-22 06:41N 34°51' E 139°14'940.2
2018-Feb-22 06:27N 34°59' E 139°09'8 8.4
2018-Feb-22 05:33N 35°06' E 139°05'138.3
2018-Feb-22 05:31N 35°05' E 139°06'1324.1
2018-Feb-22 04:59N 34°53' E 139°13'9 4.2
2018-Feb-22 02:49N 34°45' E 139°19'1112.2
2018-Feb-22 01:57N 34°46' E 139°06'1216.8
2018-Feb-22 01:14N 34°46' E 139°20'1638.9
2018-Feb-22 00:49N 34°56' E 139°36'1330.1
2018-Feb-22 00:24N 34°59' E 139°51'410.9
2018-Feb-22 00:00N 35°02' E 139°47'2039.7
2018-Feb-21 23:31N 35°22' E 139°46'1734.9
2018-Feb-21 23:00N 35°39' E 139°46'1 1.5
2018-Feb-21 22:30N 35°38' E 139°46'1 1.0
2018-Feb-21 22:00N 35°38' E 139°45'0 0.0
2018-Feb-21 21:30N 35°38' E 139°45'1 0.1
2018-Feb-21 08:43N 35°39' E 139°46'0 0.1
2018-Feb-21 08:30N 35°39' E 139°46'1531.0
2018-Feb-21 08:01N 35°24' E 139°47'1122.4
2018-Feb-21 07:30N 35°13' E 139°43'1428.5
2018-Feb-21 07:00N 34°60' E 139°37'1715.3
2018-Feb-21 05:56N 34°48' E 139°23'2139.8
2018-Feb-21 05:23N 34°60' E 139°45'3 5.9
2018-Feb-21 04:52N 35°02' E 139°47'1440.1
2018-Feb-21 04:31N 35°17' E 139°46'2038.8
2018-Feb-21 04:00N 35°36' E 139°46'3 5.9
2018-Feb-21 03:29N 35°39' E 139°46'918.6
2018-Feb-21 03:00N 35°31' E 139°49'2039.9
2018-Feb-21 02:30N 35°11' E 139°47'2618.1
2018-Feb-21 01:02N 34°51' E 139°26'1239.5
2018-Feb-21 00:44N 34°59' E 139°36'1042.3
2018-Feb-21 00:31N 35°07' E 139°43'612.3
2018-Feb-21 00:01N 35°13' E 139°44'1836.7
2018-Feb-20 23:30N 35°31' E 139°50'917.1
2018-Feb-20 22:59N 35°39' E 139°46'0 0.7
2018-Feb-20 22:31N 35°39' E 139°46'1 1.3
2018-Feb-20 21:52N 35°38' E 139°45'0 0.0
2018-Feb-20 08:46N 35°38' E 139°45'1 4.0
2018-Feb-20 08:29N 35°39' E 139°46'1122.2
2018-Feb-20 08:01N 35°29' E 139°49'2141.5
2018-Feb-20 07:30N 35°08' E 139°48'32 9.2
2018-Feb-20 04:01N 34°49' E 139°16'140.0
2018-Feb-20 04:00N 34°50' E 139°16'1832.5
2018-Feb-20 03:26N 35°05' E 139°05'1 2.1
2018-Feb-20 03:00N 35°06' E 139°06'2317.9
2018-Feb-20 01:42N 34°45' E 139°19'840.9
2018-Feb-20 01:30N 34°47' E 139°09'3 3.7
2018-Feb-20 00:47N 34°47' E 139°06'8 9.0
2018-Feb-19 23:52N 34°50' E 139°15'1222.2
2018-Feb-19 23:19N 34°60' E 139°06'613.8
2018-Feb-19 22:53N 35°05' E 139°05'0 0.0
2018-Feb-19 22:26N 35°05' E 139°05'0 0.0
2018-Feb-19 09:38N 35°05' E 139°05'0 0.0
2018-Feb-19 08:48N 35°05' E 139°05'1 3.1
2018-Feb-19 08:25N 35°05' E 139°06'1639.2
2018-Feb-19 08:00N 34°49' E 139°07'2 4.3
2018-Feb-19 07:30N 34°47' E 139°07'1312.5
2018-Feb-19 06:30N 34°59' E 139°09'712.2
2018-Feb-19 05:53N 35°05' E 139°05'514.7
2018-Feb-19 05:31N 35°00' E 139°07'918.4
2018-Feb-19 05:00N 34°53' E 139°14'9 4.3
2018-Feb-19 02:52N 34°45' E 139°20'1213.5
2018-Feb-19 01:59N 34°47' E 139°06'1215.7
2018-Feb-19 01:14N 34°46' E 139°20'1539.1
2018-Feb-19 00:51N 34°55' E 139°34'1214.5
2018-Feb-19 00:01N 35°02' E 139°47'039.4
2018-Feb-19 00:00N 35°03' E 139°46'2040.7
2018-Feb-18 23:31N 35°23' E 139°46'1618.5
2018-Feb-18 22:38N 35°39' E 139°46'1 5.9
2018-Feb-18 22:30N 35°39' E 139°46'1 1.1
2018-Feb-18 22:00N 35°38' E 139°45'0 0.0
2018-Feb-18 21:30N 35°38' E 139°45'0 0.0
2018-Feb-18 09:21N 35°38' E 139°45'0 0.8
2018-Feb-18 08:59N 35°38' E 139°46'1 2.4
2018-Feb-18 08:30N 35°39' E 139°46'1733.8
2018-Feb-18 08:00N 35°22' E 139°46'918.7
2018-Feb-18 07:30N 35°13' E 139°43'1428.1
2018-Feb-18 07:00N 34°60' E 139°38'1724.1
2018-Feb-18 06:18N 34°47' E 139°23'1 3.1
2018-Feb-18 05:57N 34°49' E 139°23'2337.7
2018-Feb-18 05:21N 35°00' E 139°47'2 3.8
2018-Feb-18 04:53N 35°02' E 139°47'1642.2
2018-Feb-18 04:31N 35°18' E 139°45'2038.9
2018-Feb-18 04:00N 35°38' E 139°46'2 3.2
2018-Feb-18 03:28N 35°39' E 139°46'1021.9
2018-Feb-18 03:01N 35°30' E 139°49'2039.4
2018-Feb-18 02:30N 35°10' E 139°47'2923.7
2018-Feb-18 01:16N 34°47' E 139°23'1732.1
2018-Feb-18 00:45N 34°60' E 139°37'1039.7
2018-Feb-18 00:30N 35°07' E 139°44'611.7
2018-Feb-18 00:01N 35°13' E 139°43'1734.7
2018-Feb-17 23:31N 35°30' E 139°49'1018.8
2018-Feb-17 23:00N 35°39' E 139°46'0 0.6
2018-Feb-17 22:30N 35°39' E 139°46'1 2.0
2018-Feb-17 22:00N 35°38' E 139°45'1 0.1
2018-Feb-17 08:33N 35°39' E 139°46'0 0.4
2018-Feb-17 08:24N 35°39' E 139°46'1231.5
2018-Feb-17 08:01N 35°27' E 139°48'1938.8
2018-Feb-17 07:30N 35°08' E 139°47'1414.7
2018-Feb-17 06:35N 34°57' E 139°37'21 7.8
2018-Feb-17 03:50N 34°57' E 139°11'1027.9
2018-Feb-17 03:29N 35°05' E 139°05'1 1.3
2018-Feb-17 02:59N 35°05' E 139°05'1912.6
2018-Feb-17 01:31N 34°48' E 139°12'043.5
2018-Feb-17 01:30N 34°48' E 139°11'5 7.4
2018-Feb-17 00:50N 34°47' E 139°05'1439.9
2018-Feb-17 00:29N 34°48' E 139°23'610.2
2018-Feb-16 23:54N 34°51' E 139°17'1219.0
2018-Feb-16 23:17N 34°59' E 139°06'617.5
2018-Feb-16 22:56N 35°05' E 139°05'0 0.0
2018-Feb-16 22:30N 35°05' E 139°05'0 0.0
2018-Feb-16 08:36N 35°05' E 139°05'1 6.5
2018-Feb-16 08:30N 35°05' E 139°05'1921.1
2018-Feb-16 07:37N 34°47' E 139°07'642.2
2018-Feb-16 07:28N 34°48' E 139°14'4 5.5
2018-Feb-16 06:46N 34°50' E 139°18'1239.1
2018-Feb-16 06:28N 34°59' E 139°09'7 6.9
2018-Feb-16 05:31N 35°05' E 139°06'144.6
2018-Feb-16 05:30N 35°05' E 139°06'17 6.2
2018-Feb-16 02:40N 34°48' E 139°11'4 6.7
2018-Feb-16 02:00N 34°47' E 139°05'2522.1
2018-Feb-16 00:52N 34°52' E 139°35'1336.3
2018-Feb-16 00:30N 35°00' E 139°48'0 0.9
2018-Feb-16 00:00N 35°01' E 139°48'2142.8
2018-Feb-15 23:31N 35°22' E 139°46'1734.2
2018-Feb-15 23:00N 35°39' E 139°46'1 2.3
2018-Feb-15 22:31N 35°38' E 139°46'0 0.7
2018-Feb-15 21:59N 35°38' E 139°45'0 0.0
2018-Feb-15 21:30N 35°38' E 139°45'1 0.1
2018-Feb-15 08:22N 35°39' E 139°46'1335.6
2018-Feb-15 08:01N 35°26' E 139°47'2141.1
2018-Feb-15 07:30N 35°06' E 139°47'713.2
2018-Feb-15 07:00N 34°60' E 139°51'1511.0
2018-Feb-15 05:40N 34°52' E 139°35'933.3
2018-Feb-15 05:23N 34°60' E 139°42'5 8.7
2018-Feb-15 04:52N 35°01' E 139°47'1540.5
2018-Feb-15 04:31N 35°16' E 139°47'1938.2
2018-Feb-15 04:00N 35°35' E 139°47'4 8.0
2018-Feb-15 03:30N 35°39' E 139°46'918.0
2018-Feb-15 03:01N 35°31' E 139°49'2040.0
2018-Feb-15 02:30N 35°11' E 139°47'2812.9
2018-Feb-15 00:21N 34°51' E 139°23'1439.2
2018-Feb-15 00:00N 35°05' E 139°26'1313.4
2018-Feb-14 23:00N 35°18' E 139°30'1632.3
2018-Feb-14 22:30N 35°05' E 139°41'1733.7
2018-Feb-14 22:00N 35°21' E 139°45'1734.6
2018-Feb-14 21:31N 35°38' E 139°46'0 0.6
2018-Feb-14 20:57N 35°38' E 139°45'1 0.0
2018-Feb-13 08:26N 35°39' E 139°46'  

Dump ship's entire track history